Here is the Quick Look data you requested

The Data originates at the National Weather Service, and is made available here by the UAlbany Department of Atmospheric and Environmental Sciences

Surface Observations

K8B0 220455Z AUTO 00000KT 10SM CLR 16/13 A3009 RMK AO2=
KAUG 220453Z AUTO 21003KT 9SM CLR 19/17 A3003 RMK AO2 SLP166 T01890172
 402830150=
KBGR 220453Z 18003KT 10SM CLR 20/17 A3000 RMK AO2 SLP156 T02000172 402940144=
KBHB 220456Z AUTO 22005KT 10SM CLR 17/16 A3002 RMK AO2 SLP168 T01720156 $=
KCAR 220454Z AUTO 26004KT 10SM CLR 20/16 A2993 RMK AO2 RAE0357B24E34 SLP135
 P0000 T02000156 402830150=
KFVE 220453Z AUTO 27010KT 10SM CLR 19/16 A2993 RMK AO2 SLP128 T01940156
 402670150=
KGNR 220456Z AUTO 00000KT 18/14 A3001 RMK AO1 SLP159 T01830144 402610150=
KHUL 220453Z AUTO 19005KT 9SM CLR 19/16 A2995 RMK AO2 SLP139 T01940156
 402780128 TSNO=
KIWI 220453Z AUTO 00000KT 7SM CLR 17/16 A3004 RMK AO2 SLP170 T01670156
 402890128=
KIZG 220454Z AUTO 00000KT 10SM CLR 18/16 A3004 RMK AO2 SLP170 T01830156
 402940117=
KLEW 220456Z AUTO 00000KT 7SM CLR 17/17 A3004 RMK AO2 SLP182 T01720167 PNO $=
KMLT 220453Z AUTO 00000KT 9SM CLR 17/16 A2999 RMK AO2 SLP159 T01670156
 402830150 TSNO=
KPQI 220456Z AUTO 26006KT 10SM CLR 21/16 A2995 RMK AO2 SLP174 T02060161
 402780156=
KPWM 220451Z AUTO 00000KT 10SM CLR 20/17 A3003 RMK AO2 SLP168 T02000167
 403000144=
KRKD 220456Z AUTO 00000KT 7SM CLR 15/15 A3002 RMK AO2 SLP167 T01500150
 402670133=
KSFM 220456Z AUTO 20003KT 6SM BR CLR 16/16 A3004 RMK AO2 SLP181 T01610156
 403000111=
KWVL 220456Z AUTO 00000KT 5SM BR CLR 18/18 A2999 RMK AO2 SLP182 T01780178=